sensor_id;sensor_type;location;lat;lon;timestamp;pressure;altitude;pressure_sealevel;temperature;humidity
59106;BME280;44891;50.204;8.132;2023-01-01T00:00:59;98184.56;;;12.96;68.99
59106;BME280;44891;50.204;8.132;2023-01-01T00:05:08;98179.97;;;12.81;69.64
59106;BME280;44891;50.204;8.132;2023-01-01T00:09:10;98179.47;;;12.84;69.55
59106;BME280;44891;50.204;8.132;2023-01-01T00:13:30;98183.72;;;12.90;69.21
59106;BME280;44891;50.204;8.132;2023-01-01T00:17:33;98188.72;;;12.92;68.66
59106;BME280;44891;50.204;8.132;2023-01-01T00:21:35;98181.66;;;12.97;68.21
59106;BME280;44891;50.204;8.132;2023-01-01T00:25:38;98183.78;;;13.00;68.11
59106;BME280;44891;50.204;8.132;2023-01-01T00:29:40;98177.69;;;12.95;68.37
59106;BME280;44891;50.204;8.132;2023-01-01T00:33:44;98162.59;;;12.85;68.51
59106;BME280;44891;50.204;8.132;2023-01-01T00:37:46;98156.78;;;12.83;68.41
59106;BME280;44891;50.204;8.132;2023-01-01T00:41:48;98152.56;;;12.82;67.54
59106;BME280;44891;50.204;8.132;2023-01-01T00:45:51;98158.38;;;12.84;67.30
59106;BME280;44891;50.204;8.132;2023-01-01T00:49:54;98164.16;;;12.81;67.37
59106;BME280;44891;50.204;8.132;2023-01-01T00:53:56;98148.34;;;12.81;67.73
59106;BME280;44891;50.204;8.132;2023-01-01T00:57:58;98145.13;;;12.74;68.93
59106;BME280;44891;50.204;8.132;2023-01-01T01:02:01;98149.59;;;12.68;69.80
59106;BME280;44891;50.204;8.132;2023-01-01T01:06:09;98145.81;;;12.59;71.87
59106;BME280;44891;50.204;8.132;2023-01-01T01:10:12;98137.06;;;12.48;73.24
59106;BME280;44891;50.204;8.132;2023-01-01T01:14:14;98128.38;;;12.21;75.05
59106;BME280;44891;50.204;8.132;2023-01-01T01:18:16;98146.19;;;12.09;75.93
59106;BME280;44891;50.204;8.132;2023-01-01T01:22:20;98148.00;;;12.08;76.78
59106;BME280;44891;50.204;8.132;2023-01-01T01:26:23;98145.03;;;12.00;77.76
59106;BME280;44891;50.204;8.132;2023-01-01T01:30:26;98154.13;;;11.87;78.50
59106;BME280;44891;50.204;8.132;2023-01-01T01:34:28;98145.78;;;11.73;79.85
59106;BME280;44891;50.204;8.132;2023-01-01T01:38:32;98164.91;;;11.63;81.31
59106;BME280;44891;50.204;8.132;2023-01-01T01:42:34;98172.78;;;11.63;81.31
59106;BME280;44891;50.204;8.132;2023-01-01T01:46:38;98183.50;;;11.57;82.13
59106;BME280;44891;50.204;8.132;2023-01-01T01:50:44;98199.81;;;11.59;81.94
59106;BME280;44891;50.204;8.132;2023-01-01T01:54:50;98215.34;;;11.60;82.36
59106;BME280;44891;50.204;8.132;2023-01-01T01:58:52;98225.88;;;11.60;82.51
59106;BME280;44891;50.204;8.132;2023-01-01T02:03:00;98226.13;;;11.59;82.20
59106;BME280;44891;50.204;8.132;2023-01-01T02:07:04;98233.06;;;11.48;82.88
59106;BME280;44891;50.204;8.132;2023-01-01T02:11:08;98237.00;;;11.46;83.62
59106;BME280;44891;50.204;8.132;2023-01-01T02:15:13;98226.81;;;11.32;84.41
59106;BME280;44891;50.204;8.132;2023-01-01T02:19:17;98221.66;;;11.21;85.10
59106;BME280;44891;50.204;8.132;2023-01-01T02:23:59;98223.31;;;11.27;84.56
59106;BME280;44891;50.204;8.132;2023-01-01T02:28:09;98218.41;;;11.13;84.67
59106;BME280;44891;50.204;8.132;2023-01-01T02:32:19;98218.41;;;11.13;84.87
59106;BME280;44891;50.204;8.132;2023-01-01T02:36:24;98206.94;;;11.20;84.07
59106;BME280;44891;50.204;8.132;2023-01-01T02:40:28;98194.66;;;11.25;82.85
59106;BME280;44891;50.204;8.132;2023-01-01T02:44:34;98208.97;;;11.34;82.64
59106;BME280;44891;50.204;8.132;2023-01-01T02:48:40;98223.13;;;11.50;81.05
59106;BME280;44891;50.204;8.132;2023-01-01T02:52:53;98210.03;;;11.55;81.07
59106;BME280;44891;50.204;8.132;2023-01-01T02:57:06;98210.66;;;11.62;80.72
59106;BME280;44891;50.204;8.132;2023-01-01T03:01:16;98219.16;;;11.69;80.42
59106;BME280;44891;50.204;8.132;2023-01-01T03:05:30;98214.91;;;11.68;80.43
59106;BME280;44891;50.204;8.132;2023-01-01T03:09:38;98217.00;;;11.66;80.09
59106;BME280;44891;50.204;8.132;2023-01-01T03:13:46;98223.50;;;11.59;80.14
59106;BME280;44891;50.204;8.132;2023-01-01T03:17:57;98224.03;;;11.61;80.26
59106;BME280;44891;50.204;8.132;2023-01-01T03:22:06;98220.25;;;11.52;80.42
59106;BME280;44891;50.204;8.132;2023-01-01T03:26:11;98249.72;;;11.54;80.90
59106;BME280;44891;50.204;8.132;2023-01-01T03:30:17;98257.34;;;11.55;81.04
59106;BME280;44891;50.204;8.132;2023-01-01T03:34:23;98244.22;;;11.55;81.62
59106;BME280;44891;50.204;8.132;2023-01-01T03:38:29;98240.75;;;11.50;82.17
59106;BME280;44891;50.204;8.132;2023-01-01T03:42:35;98241.22;;;11.47;82.77
59106;BME280;44891;50.204;8.132;2023-01-01T03:46:39;98239.63;;;11.46;82.68
59106;BME280;44891;50.204;8.132;2023-01-01T03:50:50;98240.78;;;11.55;81.85
59106;BME280;44891;50.204;8.132;2023-01-01T03:55:03;98239.19;;;11.54;81.23
59106;BME280;44891;50.204;8.132;2023-01-01T03:59:11;98243.81;;;11.63;81.61
59106;BME280;44891;50.204;8.132;2023-01-01T04:03:19;98239.09;;;11.65;80.94
59106;BME280;44891;50.204;8.132;2023-01-01T04:07:22;98244.69;;;11.69;80.58
59106;BME280;44891;50.204;8.132;2023-01-01T04:11:27;98239.19;;;11.54;80.95
59106;BME280;44891;50.204;8.132;2023-01-01T04:15:50;98225.63;;;11.62;81.16
59106;BME280;44891;50.204;8.132;2023-01-01T04:19:52;98237.97;;;11.61;80.82
59106;BME280;44891;50.204;8.132;2023-01-01T04:23:54;98232.00;;;11.66;80.79
59106;BME280;44891;50.204;8.132;2023-01-01T04:27:57;98237.56;;;11.69;80.59
59106;BME280;44891;50.204;8.132;2023-01-01T04:32:03;98237.81;;;11.68;80.81
59106;BME280;44891;50.204;8.132;2023-01-01T04:36:06;98245.81;;;11.56;80.91
59106;BME280;44891;50.204;8.132;2023-01-01T04:40:10;98236.72;;;11.64;80.74
59106;BME280;44891;50.204;8.132;2023-01-01T04:44:13;98250.34;;;11.61;81.10
59106;BME280;44891;50.204;8.132;2023-01-01T04:48:15;98239.03;;;11.60;80.84
59106;BME280;44891;50.204;8.132;2023-01-01T04:52:19;98258.47;;;11.59;80.87
59106;BME280;44891;50.204;8.132;2023-01-01T04:56:22;98256.63;;;11.60;80.54
59106;BME280;44891;50.204;8.132;2023-01-01T05:00:25;98250.34;;;11.61;80.42
59106;BME280;44891;50.204;8.132;2023-01-01T05:04:27;98249.19;;;11.52;80.75
59106;BME280;44891;50.204;8.132;2023-01-01T05:08:29;98257.06;;;11.52;81.04
59106;BME280;44891;50.204;8.132;2023-01-01T05:12:32;98263.13;;;11.52;80.98
59106;BME280;44891;50.204;8.132;2023-01-01T05:16:37;98262.50;;;11.45;81.00
59106;BME280;44891;50.204;8.132;2023-01-01T05:20:39;98253.66;;;11.51;80.75
59106;BME280;44891;50.204;8.132;2023-01-01T05:24:41;98264.16;;;11.51;80.86
59106;BME280;44891;50.204;8.132;2023-01-01T05:28:43;98266.25;;;11.49;80.40
59106;BME280;44891;50.204;8.132;2023-01-01T05:32:47;98265.31;;;11.60;79.96
59106;BME280;44891;50.204;8.132;2023-01-01T05:36:49;98269.53;;;11.61;80.04
59106;BME280;44891;50.204;8.132;2023-01-01T05:40:52;98265.75;;;11.52;80.38
59106;BME280;44891;50.204;8.132;2023-01-01T05:44:54;98263.28;;;11.62;79.51
59106;BME280;44891;50.204;8.132;2023-01-01T05:48:57;98268.91;;;11.54;79.84
59106;BME280;44891;50.204;8.132;2023-01-01T05:52:59;98267.41;;;11.58;79.36
59106;BME280;44891;50.204;8.132;2023-01-01T05:57:01;98269.31;;;11.63;79.27
59106;BME280;44891;50.204;8.132;2023-01-01T06:01:08;98274.34;;;11.64;79.12
59106;BME280;44891;50.204;8.132;2023-01-01T06:05:12;98272.66;;;11.58;78.67
59106;BME280;44891;50.204;8.132;2023-01-01T06:09:14;98284.31;;;11.62;78.90
59106;BME280;44891;50.204;8.132;2023-01-01T06:13:16;98298.56;;;11.66;78.42
59106;BME280;44891;50.204;8.132;2023-01-01T06:17:18;98298.38;;;11.73;77.73
59106;BME280;44891;50.204;8.132;2023-01-01T06:21:24;98303.72;;;11.78;77.42
59106;BME280;44891;50.204;8.132;2023-01-01T06:25:26;98304.75;;;11.77;77.08
59106;BME280;44891;50.204;8.132;2023-01-01T06:29:28;98304.44;;;11.74;77.28
59106;BME280;44891;50.204;8.132;2023-01-01T06:33:31;98305.09;;;11.81;76.86
59106;BME280;44891;50.204;8.132;2023-01-01T06:37:35;98304.88;;;11.82;76.89
59106;BME280;44891;50.204;8.132;2023-01-01T06:41:37;98321.66;;;11.81;76.76
59106;BME280;44891;50.204;8.132;2023-01-01T06:45:39;98315.38;;;11.82;76.97
59106;BME280;44891;50.204;8.132;2023-01-01T06:49:41;98335.44;;;11.88;76.63
59106;BME280;44891;50.204;8.132;2023-01-01T06:53:45;98353.47;;;11.96;76.53
59106;BME280;44891;50.204;8.132;2023-01-01T06:57:50;98342.97;;;12.02;75.97
59106;BME280;44891;50.204;8.132;2023-01-01T07:01:52;98350.09;;;12.01;76.23
59106;BME280;44891;50.204;8.132;2023-01-01T07:05:54;98348.38;;;11.90;77.02
59106;BME280;44891;50.204;8.132;2023-01-01T07:09:57;98346.47;;;11.85;76.77
59106;BME280;44891;50.204;8.132;2023-01-01T07:14:00;98345.78;;;11.95;76.03
59106;BME280;44891;50.204;8.132;2023-01-01T07:18:02;98357.13;;;11.95;76.67
59106;BME280;44891;50.204;8.132;2023-01-01T07:22:04;98363.66;;;11.93;76.54
59106;BME280;44891;50.204;8.132;2023-01-01T07:26:07;98374.44;;;11.91;76.29
59106;BME280;44891;50.204;8.132;2023-01-01T07:30:11;98376.56;;;11.94;76.40
59106;BME280;44891;50.204;8.132;2023-01-01T07:34:14;98381.78;;;11.89;76.38
59106;BME280;44891;50.204;8.132;2023-01-01T07:38:18;98405.44;;;11.73;77.32
59106;BME280;44891;50.204;8.132;2023-01-01T07:42:22;98410.91;;;11.83;76.89
59106;BME280;44891;50.204;8.132;2023-01-01T07:46:24;98406.50;;;11.88;76.84
59106;BME280;44891;50.204;8.132;2023-01-01T07:50:28;98388.91;;;11.89;77.15
59106;BME280;44891;50.204;8.132;2023-01-01T07:54:30;98382.97;;;11.98;76.45
59106;BME280;44891;50.204;8.132;2023-01-01T07:58:33;98398.34;;;12.07;76.20
59106;BME280;44891;50.204;8.132;2023-01-01T08:02:35;98398.66;;;12.10;76.00
59106;BME280;44891;50.204;8.132;2023-01-01T08:06:38;98403.13;;;12.10;75.99
59106;BME280;44891;50.204;8.132;2023-01-01T08:10:40;98409.00;;;12.17;75.79
59106;BME280;44891;50.204;8.132;2023-01-01T08:14:44;98403.50;;;12.18;75.61
59106;BME280;44891;50.204;8.132;2023-01-01T08:18:46;98395.06;;;12.16;76.14
59106;BME280;44891;50.204;8.132;2023-01-01T08:22:48;98407.88;;;12.30;75.44
59106;BME280;44891;50.204;8.132;2023-01-01T08:26:50;98424.28;;;12.37;75.05
59106;BME280;44891;50.204;8.132;2023-01-01T08:30:53;98425.44;;;12.46;75.01
59106;BME280;44891;50.204;8.132;2023-01-01T08:34:55;98429.72;;;12.52;74.97
59106;BME280;44891;50.204;8.132;2023-01-01T08:38:58;98429.72;;;12.52;74.57
59106;BME280;44891;50.204;8.132;2023-01-01T08:43:00;98424.78;;;12.56;74.62
59106;BME280;44891;50.204;8.132;2023-01-01T08:47:03;98423.47;;;12.58;74.45
59106;BME280;44891;50.204;8.132;2023-01-01T08:51:05;98433.59;;;12.66;74.36
59106;BME280;44891;50.204;8.132;2023-01-01T08:55:08;98446.53;;;12.68;74.31
59106;BME280;44891;50.204;8.132;2023-01-01T08:59:10;98457.63;;;12.70;74.43
59106;BME280;44891;50.204;8.132;2023-01-01T09:03:14;98462.28;;;12.63;74.37
59106;BME280;44891;50.204;8.132;2023-01-01T09:07:16;98468.34;;;12.63;74.85
59106;BME280;44891;50.204;8.132;2023-01-01T09:11:21;98477.09;;;12.69;74.48
59106;BME280;44891;50.204;8.132;2023-01-01T09:15:24;98482.66;;;12.72;75.48
59106;BME280;44891;50.204;8.132;2023-01-01T09:19:27;98444.56;;;12.58;74.16
59106;BME280;44891;50.204;8.132;2023-01-01T09:23:29;98474.31;;;12.80;74.74
59106;BME280;44891;50.204;8.132;2023-01-01T09:27:32;98466.66;;;12.79;74.28
59106;BME280;44891;50.204;8.132;2023-01-01T09:31:34;98462.19;;;12.79;74.31
59106;BME280;44891;50.204;8.132;2023-01-01T09:35:38;98454.53;;;12.78;74.64
59106;BME280;44891;50.204;8.132;2023-01-01T09:39:44;98453.44;;;12.74;75.06
59106;BME280;44891;50.204;8.132;2023-01-01T09:43:53;98459.53;;;12.74;75.22
59106;BME280;44891;50.204;8.132;2023-01-01T09:48:03;98460.06;;;12.76;75.41
59106;BME280;44891;50.204;8.132;2023-01-01T09:52:10;98464.28;;;12.77;76.59
59106;BME280;44891;50.204;8.132;2023-01-01T09:56:18;98450.88;;;12.57;75.44
59106;BME280;44891;50.204;8.132;2023-01-01T10:00:21;98453.25;;;12.59;75.81
59106;BME280;44891;50.204;8.132;2023-01-01T10:04:32;98481.88;;;12.72;76.47
59106;BME280;44891;50.204;8.132;2023-01-01T10:08:47;98491.94;;;12.75;76.62
59106;BME280;44891;50.204;8.132;2023-01-01T10:12:59;98469.84;;;12.59;76.40
59106;BME280;44891;50.204;8.132;2023-01-01T10:17:10;98490.97;;;12.81;76.84
59106;BME280;44891;50.204;8.132;2023-01-01T10:21:16;98503.88;;;12.83;75.43
59106;BME280;44891;50.204;8.132;2023-01-01T10:25:22;98498.00;;;12.75;75.68
59106;BME280;44891;50.204;8.132;2023-01-01T10:29:31;98506.88;;;12.69;75.62
59106;BME280;44891;50.204;8.132;2023-01-01T10:33:37;98496.78;;;12.61;75.90
59106;BME280;44891;50.204;8.132;2023-01-01T10:37:39;98498.19;;;12.69;76.12
59106;BME280;44891;50.204;8.132;2023-01-01T10:41:44;98457.00;;;12.63;75.65
59106;BME280;44891;50.204;8.132;2023-01-01T10:45:49;98459.38;;;13.08;74.49
59106;BME280;44891;50.204;8.132;2023-01-01T10:49:55;98456.41;;;13.26;73.91
59106;BME280;44891;50.204;8.132;2023-01-01T10:53:58;98474.22;;;13.41;73.74
59106;BME280;44891;50.204;8.132;2023-01-01T10:58:28;98472.78;;;13.55;72.67
59106;BME280;44891;50.204;8.132;2023-01-01T11:02:34;98473.94;;;13.70;72.72
59106;BME280;44891;50.204;8.132;2023-01-01T11:06:37;98478.84;;;13.56;72.91
59106;BME280;44891;50.204;8.132;2023-01-01T11:10:49;98480.97;;;13.32;73.43
59106;BME280;44891;50.204;8.132;2023-01-01T11:14:54;98464.44;;;13.15;73.99
59106;BME280;44891;50.204;8.132;2023-01-01T11:19:01;98451.69;;;13.06;74.85
59106;BME280;44891;50.204;8.132;2023-01-01T11:23:17;98421.78;;;12.96;74.97
59106;BME280;44891;50.204;8.132;2023-01-01T11:27:22;98442.13;;;13.00;75.00
59106;BME280;44891;50.204;8.132;2023-01-01T11:31:28;98430.25;;;12.98;75.72
59106;BME280;44891;50.204;8.132;2023-01-01T11:35:33;98442.50;;;13.09;75.50
59106;BME280;44891;50.204;8.132;2023-01-01T11:39:41;98440.34;;;13.06;75.09
59106;BME280;44891;50.204;8.132;2023-01-01T11:43:44;98437.56;;;13.18;75.39
59106;BME280;44891;50.204;8.132;2023-01-01T11:47:53;98438.69;;;13.22;74.70
59106;BME280;44891;50.204;8.132;2023-01-01T11:51:56;98425.50;;;13.22;74.90
59106;BME280;44891;50.204;8.132;2023-01-01T11:56:03;98439.28;;;13.29;74.84
59106;BME280;44891;50.204;8.132;2023-01-01T12:00:13;98442.03;;;13.17;74.49
59106;BME280;44891;50.204;8.132;2023-01-01T12:04:21;98440.34;;;13.06;75.78
59106;BME280;44891;50.204;8.132;2023-01-01T12:08:32;98443.50;;;13.03;75.58
59106;BME280;44891;50.204;8.132;2023-01-01T12:12:40;98436.97;;;13.11;75.74
59106;BME280;44891;50.204;8.132;2023-01-01T12:16:49;98432.41;;;13.01;75.74
59106;BME280;44891;50.204;8.132;2023-01-01T12:20:57;98440.13;;;13.07;75.83
59106;BME280;44891;50.204;8.132;2023-01-01T12:25:02;98407.03;;;12.95;74.91
59106;BME280;44891;50.204;8.132;2023-01-01T12:29:16;98432.28;;;13.18;75.16
59106;BME280;44891;50.204;8.132;2023-01-01T12:33:37;98419.25;;;13.33;74.70
59106;BME280;44891;50.204;8.132;2023-01-01T12:37:50;98416.31;;;13.56;73.21
59106;BME280;44891;50.204;8.132;2023-01-01T12:41:59;98424.91;;;13.79;71.66
59106;BME280;44891;50.204;8.132;2023-01-01T12:46:17;98427.50;;;13.69;71.72
59106;BME280;44891;50.204;8.132;2023-01-01T12:50:32;98424.28;;;13.67;72.01
59106;BME280;44891;50.204;8.132;2023-01-01T12:59:31;98423.41;;;13.88;71.47
59106;BME280;44891;50.204;8.132;2023-01-01T13:03:40;98431.44;;;14.08;70.20
59106;BME280;44891;50.204;8.132;2023-01-01T13:07:48;98432.16;;;13.99;71.24
59106;BME280;44891;50.204;8.132;2023-01-01T13:11:55;98438.72;;;13.91;71.17
59106;BME280;44891;50.204;8.132;2023-01-01T13:16:00;98429.78;;;13.97;71.50
59106;BME280;44891;50.204;8.132;2023-01-01T13:20:15;98427.09;;;13.92;71.29
59106;BME280;44891;50.204;8.132;2023-01-01T13:24:24;98416.94;;;13.69;72.25
59106;BME280;44891;50.204;8.132;2023-01-01T13:28:27;98405.38;;;13.80;72.32
59106;BME280;44891;50.204;8.132;2023-01-01T13:41:47;98424.19;;;13.51;73.19
59106;BME280;44891;50.204;8.132;2023-01-01T13:45:50;98426.50;;;13.43;73.64
59106;BME280;44891;50.204;8.132;2023-01-01T13:50:04;98432.50;;;13.38;73.93
59106;BME280;44891;50.204;8.132;2023-01-01T13:54:28;98432.75;;;13.37;74.66
59106;BME280;44891;50.204;8.132;2023-01-01T14:03:21;98405.25;;;13.27;74.33
59106;BME280;44891;50.204;8.132;2023-01-01T14:07:39;98414.19;;;13.21;74.25
59106;BME280;44891;50.204;8.132;2023-01-01T14:11:43;98430.00;;;13.21;74.46
59106;BME280;44891;50.204;8.132;2023-01-01T14:15:51;98398.22;;;13.11;74.33
59106;BME280;44891;50.204;8.132;2023-01-01T14:19:54;98421.75;;;13.18;74.76
59106;BME280;44891;50.204;8.132;2023-01-01T14:24:00;98422.00;;;13.16;74.85
59106;BME280;44891;50.204;8.132;2023-01-01T14:28:03;98414.53;;;13.08;74.99
59106;BME280;44891;50.204;8.132;2023-01-01T14:32:14;98419.25;;;13.06;74.83
59106;BME280;44891;50.204;8.132;2023-01-01T14:36:22;98410.25;;;13.02;75.30
59106;BME280;44891;50.204;8.132;2023-01-01T14:40:26;98408.31;;;12.92;75.85
59106;BME280;44891;50.204;8.132;2023-01-01T14:44:33;98419.84;;;12.86;76.46
59106;BME280;44891;50.204;8.132;2023-01-01T14:48:41;98412.50;;;12.88;76.41
59106;BME280;44891;50.204;8.132;2023-01-01T14:52:44;98421.63;;;12.80;76.42
59106;BME280;44891;50.204;8.132;2023-01-01T14:56:49;98407.63;;;12.75;76.41
59106;BME280;44891;50.204;8.132;2023-01-01T15:00:52;98430.22;;;12.71;76.68
59106;BME280;44891;50.204;8.132;2023-01-01T15:04:54;98434.16;;;12.68;76.74
59106;BME280;44891;50.204;8.132;2023-01-01T15:08:57;98438.63;;;12.68;77.03
59106;BME280;44891;50.204;8.132;2023-01-01T15:13:03;98434.38;;;12.67;76.64
59106;BME280;44891;50.204;8.132;2023-01-01T15:17:07;98441.25;;;12.68;76.71
59106;BME280;44891;50.204;8.132;2023-01-01T15:21:13;98443.75;;;12.58;78.61
59106;BME280;44891;50.204;8.132;2023-01-01T15:25:17;98440.59;;;12.56;79.60
59106;BME280;44891;50.204;8.132;2023-01-01T15:29:27;98437.88;;;12.50;80.29
59106;BME280;44891;50.204;8.132;2023-01-01T15:33:29;98429.63;;;12.42;81.71
59106;BME280;44891;50.204;8.132;2023-01-01T15:37:34;98419.63;;;12.44;80.58
59106;BME280;44891;50.204;8.132;2023-01-01T15:41:41;98419.88;;;12.42;80.09
59106;BME280;44891;50.204;8.132;2023-01-01T15:45:53;98420.97;;;12.46;78.93
59106;BME280;44891;50.204;8.132;2023-01-01T15:50:06;98416.19;;;12.43;80.26
59106;BME280;44891;50.204;8.132;2023-01-01T15:54:14;98416.66;;;12.40;80.54
59106;BME280;44891;50.204;8.132;2023-01-01T15:58:21;98411.75;;;12.27;79.45
59106;BME280;44891;50.204;8.132;2023-01-01T16:02:28;98421.94;;;12.40;78.79
59106;BME280;44891;50.204;8.132;2023-01-01T16:06:33;98424.81;;;12.39;79.08
59106;BME280;44891;50.204;8.132;2023-01-01T16:10:43;98431.69;;;12.40;79.20
59106;BME280;44891;50.204;8.132;2023-01-01T16:14:45;98425.31;;;12.36;79.91
59106;BME280;44891;50.204;8.132;2023-01-01T16:18:49;98411.09;;;12.37;79.21
59106;BME280;44891;50.204;8.132;2023-01-01T16:22:51;98417.41;;;12.36;79.41
59106;BME280;44891;50.204;8.132;2023-01-01T16:26:53;98408.47;;;12.37;79.15
59106;BME280;44891;50.204;8.132;2023-01-01T16:30:56;98398.19;;;12.35;79.19
59106;BME280;44891;50.204;8.132;2023-01-01T16:35:00;98391.81;;;12.31;79.15
59106;BME280;44891;50.204;8.132;2023-01-01T16:39:02;98395.00;;;12.33;79.02
59106;BME280;44891;50.204;8.132;2023-01-01T16:43:05;98400.50;;;12.32;79.45
59106;BME280;44891;50.204;8.132;2023-01-01T16:47:09;98391.81;;;12.31;79.34
59106;BME280;44891;50.204;8.132;2023-01-01T16:51:17;98386.00;;;12.29;79.23
59106;BME280;44891;50.204;8.132;2023-01-01T16:55:20;98380.41;;;12.25;79.44
59106;BME280;44891;50.204;8.132;2023-01-01T16:59:22;98376.19;;;12.24;79.37
59106;BME280;44891;50.204;8.132;2023-01-01T17:03:24;98368.63;;;12.28;79.05
59106;BME280;44891;50.204;8.132;2023-01-01T17:07:27;98372.03;;;12.29;79.80
59106;BME280;44891;50.204;8.132;2023-01-01T17:11:29;98366.72;;;12.23;80.62
59106;BME280;44891;50.204;8.132;2023-01-01T17:15:33;98349.25;;;12.17;81.98
59106;BME280;44891;50.204;8.132;2023-01-01T17:19:35;98362.47;;;12.22;81.04
59106;BME280;44891;50.204;8.132;2023-01-01T17:23:40;98347.84;;;12.32;79.10
59106;BME280;44891;50.204;8.132;2023-01-01T17:27:42;98346.19;;;12.25;80.42
59106;BME280;44891;50.204;8.132;2023-01-01T17:31:45;98351.00;;;12.34;79.35
59106;BME280;44891;50.204;8.132;2023-01-01T17:35:47;98333.69;;;12.38;80.25
59106;BME280;44891;50.204;8.132;2023-01-01T17:39:51;98335.78;;;12.36;81.16
59106;BME280;44891;50.204;8.132;2023-01-01T17:43:53;98335.66;;;12.25;82.64
59106;BME280;44891;50.204;8.132;2023-01-01T17:47:56;98320.47;;;12.33;80.22
59106;BME280;44891;50.204;8.132;2023-01-01T17:51:58;98296.50;;;12.34;78.96
59106;BME280;44891;50.204;8.132;2023-01-01T17:56:02;98297.00;;;12.31;79.03
59106;BME280;44891;50.204;8.132;2023-01-01T18:00:05;98294.91;;;12.33;78.15
59106;BME280;44891;50.204;8.132;2023-01-01T18:04:13;98302.28;;;12.31;77.92
59106;BME280;44891;50.204;8.132;2023-01-01T18:08:15;98286.47;;;12.31;77.87
59106;BME280;44891;50.204;8.132;2023-01-01T18:12:18;98279.38;;;12.32;77.96
59106;BME280;44891;50.204;8.132;2023-01-01T18:16:20;98285.38;;;12.27;77.75
59106;BME280;44891;50.204;8.132;2023-01-01T18:20:23;98298.50;;;12.22;78.10
59106;BME280;44891;50.204;8.132;2023-01-01T18:24:25;98295.06;;;12.21;78.30
59106;BME280;44891;50.204;8.132;2023-01-01T18:28:28;98293.72;;;12.19;78.30
59106;BME280;44891;50.204;8.132;2023-01-01T18:32:31;98289.75;;;12.16;79.09
59106;BME280;44891;50.204;8.132;2023-01-01T18:36:33;98291.81;;;12.14;79.21
59106;BME280;44891;50.204;8.132;2023-01-01T18:40:37;98288.09;;;12.10;79.53
59106;BME280;44891;50.204;8.132;2023-01-01T18:44:40;98291.78;;;12.09;79.31
59106;BME280;44891;50.204;8.132;2023-01-01T18:48:43;98280.66;;;12.07;79.41
59106;BME280;44891;50.204;8.132;2023-01-01T18:52:45;98280.66;;;12.07;79.93
59106;BME280;44891;50.204;8.132;2023-01-01T18:56:48;98268.31;;;12.08;79.86
59106;BME280;44891;50.204;8.132;2023-01-01T19:00:52;98264.94;;;12.12;79.53
59106;BME280;44891;50.204;8.132;2023-01-01T19:04:57;98249.53;;;11.99;79.38
59106;BME280;44891;50.204;8.132;2023-01-01T19:09:15;98252.31;;;12.14;78.77
59106;BME280;44891;50.204;8.132;2023-01-01T19:13:19;98245.72;;;12.12;79.40
59106;BME280;44891;50.204;8.132;2023-01-01T19:17:23;98249.41;;;12.11;80.00
59106;BME280;44891;50.204;8.132;2023-01-01T19:21:25;98240.84;;;11.98;80.60
59106;BME280;44891;50.204;8.132;2023-01-01T19:25:34;98235.81;;;11.97;80.72
59106;BME280;44891;50.204;8.132;2023-01-01T19:29:40;98238.75;;;12.01;80.34
59106;BME280;44891;50.204;8.132;2023-01-01T19:33:44;98243.59;;;12.09;79.57
59106;BME280;44891;50.204;8.132;2023-01-01T19:37:46;98239.16;;;12.14;79.14
59106;BME280;44891;50.204;8.132;2023-01-01T19:41:48;98229.41;;;12.15;78.63
59106;BME280;44891;50.204;8.132;2023-01-01T19:45:50;98241.38;;;12.22;77.86
59106;BME280;44891;50.204;8.132;2023-01-01T19:49:54;98229.28;;;12.27;76.40
59106;BME280;44891;50.204;8.132;2023-01-01T19:53:56;98216.97;;;12.32;76.35
59106;BME280;44891;50.204;8.132;2023-01-01T19:57:58;98224.06;;;12.32;76.50
59106;BME280;44891;50.204;8.132;2023-01-01T20:02:00;98208.00;;;12.28;76.57
59106;BME280;44891;50.204;8.132;2023-01-01T20:06:05;98212.50;;;12.33;76.31
59106;BME280;44891;50.204;8.132;2023-01-01T20:10:08;98212.28;;;12.39;75.68
59106;BME280;44891;50.204;8.132;2023-01-01T20:14:10;98203.91;;;12.47;73.83
59106;BME280;44891;50.204;8.132;2023-01-01T20:18:12;98194.25;;;12.90;69.63
59106;BME280;44891;50.204;8.132;2023-01-01T20:22:16;98194.28;;;13.27;67.31
59106;BME280;44891;50.204;8.132;2023-01-01T20:26:18;98195.91;;;13.44;66.39
59106;BME280;44891;50.204;8.132;2023-01-01T20:30:20;98200.41;;;13.43;67.17
59106;BME280;44891;50.204;8.132;2023-01-01T20:34:22;98189.22;;;13.26;67.88
59106;BME280;44891;50.204;8.132;2023-01-01T20:38:26;98195.75;;;13.18;68.06
59106;BME280;44891;50.204;8.132;2023-01-01T20:42:28;98213.94;;;13.15;68.87
59106;BME280;44891;50.204;8.132;2023-01-01T20:46:30;98224.19;;;13.11;68.79
59106;BME280;44891;50.204;8.132;2023-01-01T20:50:32;98220.75;;;13.11;69.48
59106;BME280;44891;50.204;8.132;2023-01-01T20:54:35;98216.00;;;13.07;69.92
59106;BME280;44891;50.204;8.132;2023-01-01T21:01:44;98207.31;;;13.12;68.86
59106;BME280;44891;50.204;8.132;2023-01-01T21:05:46;98179.94;;;13.18;68.57
59106;BME280;44891;50.204;8.132;2023-01-01T21:09:48;98190.34;;;13.40;66.94
59106;BME280;44891;50.204;8.132;2023-01-01T21:13:50;98188.81;;;13.49;66.28
59106;BME280;44891;50.204;8.132;2023-01-01T21:17:54;98195.19;;;13.58;65.60
59106;BME280;44891;50.204;8.132;2023-01-01T21:21:57;98196.53;;;13.61;65.72
59106;BME280;44891;50.204;8.132;2023-01-01T21:25:59;98199.41;;;13.59;65.85
59106;BME280;44891;50.204;8.132;2023-01-01T21:30:01;98195.22;;;13.64;65.03
59106;BME280;44891;50.204;8.132;2023-01-01T21:34:17;98189.72;;;13.75;64.25
59106;BME280;44891;50.204;8.132;2023-01-01T21:38:22;98184.41;;;13.70;64.20
59106;BME280;44891;50.204;8.132;2023-01-01T21:42:25;98193.38;;;13.64;64.74
59106;BME280;44891;50.204;8.132;2023-01-01T21:46:31;98192.06;;;13.62;64.25
59106;BME280;44891;50.204;8.132;2023-01-01T21:50:38;98187.81;;;13.66;64.45
59106;BME280;44891;50.204;8.132;2023-01-01T21:54:41;98196.25;;;13.57;65.31
59106;BME280;44891;50.204;8.132;2023-01-01T21:58:44;98201.50;;;13.52;65.35